Time;durP1;ratioP1;P1;durP2;ratioP2;P2;SDS_P1;SDS_P2;PMS_P1;PMS_P2;Temp;Humidity;BMP_temperature;BMP_pressure;BME280_temperature;BME280_humidity;BME280_pressure;Samples;Min_cycle;Max_cycle;Signal;HPM_P1;HPM_P2
2022/03/12 00:00:10;;;;;;;6.57;3.53;;;;;;;;;;5034558;28;20029;-49
2022/03/12 00:02:36;;;;;;;5.50;3.45;;;;;;;;;;5034482;28;20035;-49
2022/03/12 00:05:07;;;;;;;5.20;3.50;;;;;;;;;;5034408;28;20107;-49
2022/03/12 00:07:34;;;;;;;5.32;4.05;;;;;;;;;;5034742;28;20032;-49
2022/03/12 00:10:00;;;;;;;5.45;3.35;;;;;;;;;;5034240;28;20442;-49
2022/03/12 00:12:30;;;;;;;4.20;3.47;;;;;;;;;;5034578;28;20026;-49
2022/03/12 00:14:56;;;;;;;5.55;3.72;;;;;;;;;;5034235;28;20113;-48
2022/03/12 00:17:25;;;;;;;4.45;3.35;;;;;;;;;;5034216;28;20062;-48
2022/03/12 00:19:51;;;;;;;7.15;4.03;;;;;;;;;;5034044;28;20483;-49
2022/03/12 00:22:17;;;;;;;4.53;3.40;;;;;;;;;;5034086;28;20041;-48
2022/03/12 00:24:43;;;;;;;5.30;3.78;;;;;;;;;;5034086;28;20480;-50
2022/03/12 00:27:10;;;;;;;5.78;3.28;;;;;;;;;;5034017;28;20044;-50
2022/03/12 00:29:36;;;;;;;4.97;3.53;;;;;;;;;;5034200;28;20033;-50
2022/03/12 00:32:04;;;;;;;4.43;3.40;;;;;;;;;;5033951;28;20048;-48
2022/03/12 00:34:30;;;;;;;5.90;3.58;;;;;;;;;;5033925;28;20076;-49
2022/03/12 00:36:56;;;;;;;6.10;3.53;;;;;;;;;;5033824;28;20061;-49
2022/03/12 00:39:22;;;;;;;5.28;3.67;;;;;;;;;;5033768;28;20104;-49
2022/03/12 00:41:48;;;;;;;3.63;3.05;;;;;;;;;;5033800;28;20068;-48
2022/03/12 00:44:18;;;;;;;5.03;3.97;;;;;;;;;;5033441;28;20202;-49
2022/03/12 00:46:44;;;;;;;5.50;3.47;;;;;;;;;;5033970;28;20027;-49
2022/03/12 00:49:10;;;;;;;5.47;3.30;;;;;;;;;;5033528;28;20287;-49
2022/03/12 00:51:38;;;;;;;5.47;3.72;;;;;;;;;;5033576;28;20037;-48
2022/03/12 00:54:04;;;;;;;5.32;3.80;;;;;;;;;;5033450;28;20022;-49
2022/03/12 00:56:30;;;;;;;5.82;3.65;;;;;;;;;;5033457;28;20079;-48
2022/03/12 00:58:57;;;;;;;5.25;3.38;;;;;;;;;;5033340;28;20407;-49
2022/03/12 01:01:26;;;;;;;3.75;3.22;;;;;;;;;;5033403;28;20040;-50
2022/03/12 01:03:52;;;;;;;4.72;3.15;;;;;;;;;;5033365;28;20036;-49
2022/03/12 01:06:18;;;;;;;4.85;3.53;;;;;;;;;;5033273;28;20029;-49
2022/03/12 01:08:45;;;;;;;4.90;3.28;;;;;;;;;;5033098;28;20025;-55
2022/03/12 01:11:12;;;;;;;4.38;3.10;;;;;;;;;;5032765;28;20373;-56
2022/03/12 01:13:38;;;;;;;4.38;3.58;;;;;;;;;;5032943;28;20029;-56
2022/03/12 01:16:05;;;;;;;6.20;3.65;;;;;;;;;;5032810;28;20453;-56
2022/03/12 01:18:31;;;;;;;5.35;3.53;;;;;;;;;;5032802;28;20148;-55
2022/03/12 01:21:06;;;;;;;3.67;3.15;;;;;;;;;;5032836;28;20361;-56
2022/03/12 01:23:32;;;;;;;3.80;3.00;;;;;;;;;;5033003;28;20025;-55
2022/03/12 01:25:58;;;;;;;4.45;3.28;;;;;;;;;;5032661;28;20032;-56
2022/03/12 01:28:24;;;;;;;4.80;3.38;;;;;;;;;;5032866;28;20032;-54
2022/03/12 01:30:50;;;;;;;4.70;2.95;;;;;;;;;;5032739;28;20044;-55
2022/03/12 01:33:18;;;;;;;3.88;3.30;;;;;;;;;;5032697;28;20025;-56
2022/03/12 01:35:44;;;;;;;4.05;3.08;;;;;;;;;;5032720;28;20030;-56
2022/03/12 01:38:10;;;;;;;4.47;3.17;;;;;;;;;;5032384;28;20495;-56
2022/03/12 01:40:36;;;;;;;4.93;3.28;;;;;;;;;;5032472;28;20040;-55
2022/03/12 01:43:02;;;;;;;4.35;3.50;;;;;;;;;;5032446;28;20033;-55
2022/03/12 01:45:29;;;;;;;5.72;3.40;;;;;;;;;;5032221;28;20053;-48
2022/03/12 01:47:56;;;;;;;5.05;3.10;;;;;;;;;;5032624;28;20275;-49
2022/03/12 01:50:22;;;;;;;3.78;2.97;;;;;;;;;;5032492;28;20045;-49
2022/03/12 01:52:49;;;;;;;4.07;2.85;;;;;;;;;;5032511;28;20025;-49
2022/03/12 01:55:15;;;;;;;3.95;3.45;;;;;;;;;;5032770;28;20446;-49
2022/03/12 01:57:41;;;;;;;3.80;3.05;;;;;;;;;;5032729;28;20533;-49
2022/03/12 02:00:08;;;;;;;3.50;3.00;;;;;;;;;;5032510;28;20059;-49
2022/03/12 02:02:34;;;;;;;3.72;3.15;;;;;;;;;;5032488;28;20480;-49
2022/03/12 02:05:05;;;;;;;4.65;3.45;;;;;;;;;;5032689;28;20033;-50
2022/03/12 02:07:31;;;;;;;4.97;3.50;;;;;;;;;;5032610;28;20030;-49
2022/03/12 02:09:58;;;;;;;3.88;3.20;;;;;;;;;;5032221;28;20522;-49
2022/03/12 02:12:24;;;;;;;4.22;2.90;;;;;;;;;;5032512;28;20029;-49
2022/03/12 02:14:50;;;;;;;4.25;2.88;;;;;;;;;;5032304;28;20112;-49
2022/03/12 02:17:16;;;;;;;3.28;2.63;;;;;;;;;;5032416;28;20109;-49
2022/03/12 02:19:42;;;;;;;3.30;2.90;;;;;;;;;;5034015;28;20052;-49
2022/03/12 02:22:15;;;;;;;4.20;2.92;;;;;;;;;;5036379;28;20025;-49
2022/03/12 02:24:42;;;;;;;3.40;2.88;;;;;;;;;;5036294;28;20028;-50
2022/03/12 02:27:10;;;;;;;4.57;3.35;;;;;;;;;;5036284;28;20037;-49
2022/03/12 02:29:37;;;;;;;4.82;2.83;;;;;;;;;;5036183;28;20266;-49
2022/03/12 02:32:09;;;;;;;3.67;2.70;;;;;;;;;;5036124;28;20029;-49
2022/03/12 02:34:50;;;;;;;4.32;3.28;;;;;;;;;;5036079;28;20071;-49
2022/03/12 02:37:26;;;;;;;3.30;2.70;;;;;;;;;;5036153;28;20034;-49
2022/03/12 02:39:52;;;;;;;3.47;2.97;;;;;;;;;;5036162;28;20113;-51
2022/03/12 02:42:19;;;;;;;4.03;3.20;;;;;;;;;;5036011;28;20065;-49
2022/03/12 02:44:45;;;;;;;2.83;2.50;;;;;;;;;;5035862;28;20045;-49
2022/03/12 02:47:16;;;;;;;3.92;2.90;;;;;;;;;;5036236;28;20029;-50
2022/03/12 02:49:46;;;;;;;4.80;2.97;;;;;;;;;;5035812;28;20061;-49
2022/03/12 02:52:13;;;;;;;3.42;2.85;;;;;;;;;;5035837;28;20036;-49
2022/03/12 02:54:40;;;;;;;3.65;2.97;;;;;;;;;;5036028;28;20022;-49
2022/03/12 02:57:06;;;;;;;4.53;2.60;;;;;;;;;;5035774;28;20124;-50
2022/03/12 02:59:33;;;;;;;3.15;2.47;;;;;;;;;;5035636;28;20061;-49
2022/03/12 03:02:03;;;;;;;3.40;2.60;;;;;;;;;;5036185;28;20029;-50
2022/03/12 03:04:35;;;;;;;5.78;2.85;;;;;;;;;;5035803;28;20041;-48
2022/03/12 03:07:02;;;;;;;3.45;2.42;;;;;;;;;;5035525;28;20026;-49
2022/03/12 03:09:28;;;;;;;2.60;2.40;;;;;;;;;;5035339;28;20498;-49
2022/03/12 03:11:56;;;;;;;3.63;2.78;;;;;;;;;;5035663;28;20029;-48
2022/03/12 03:14:26;;;;;;;2.85;2.30;;;;;;;;;;5035442;28;20041;-50
2022/03/12 03:16:53;;;;;;;2.42;2.17;;;;;;;;;;5035666;28;20064;-49
2022/03/12 03:19:19;;;;;;;2.53;2.05;;;;;;;;;;5034065;28;20499;-49
2022/03/12 03:21:45;;;;;;;2.45;2.00;;;;;;;;;;5035248;28;20524;-48
2022/03/12 03:24:11;;;;;;;2.40;2.20;;;;;;;;;;5035209;28;20029;-50
2022/03/12 03:26:44;;;;;;;2.70;2.25;;;;;;;;;;5035147;28;20025;-48
2022/03/12 03:29:10;;;;;;;2.50;1.95;;;;;;;;;;5035471;28;20112;-48
2022/03/12 03:31:36;;;;;;;3.05;2.33;;;;;;;;;;5034979;28;20091;-49
2022/03/12 03:34:02;;;;;;;1.95;1.85;;;;;;;;;;5035152;28;20091;-49
2022/03/12 03:36:29;;;;;;;2.20;2.00;;;;;;;;;;5035100;28;20052;-50
2022/03/12 03:38:55;;;;;;;3.22;2.53;;;;;;;;;;5034872;28;20028;-51
2022/03/12 03:41:20;;;;;;;2.28;2.08;;;;;;;;;;5034940;28;20055;-50
2022/03/12 03:43:48;;;;;;;2.42;2.08;;;;;;;;;;5034559;28;20030;-49
2022/03/12 03:46:20;;;;;;;2.53;2.30;;;;;;;;;;5034941;28;20029;-48
2022/03/12 03:48:46;;;;;;;2.20;2.00;;;;;;;;;;5034746;28;20035;-50
2022/03/12 03:51:12;;;;;;;2.35;1.67;;;;;;;;;;5034653;28;20044;-49
2022/03/12 03:53:38;;;;;;;2.60;2.17;;;;;;;;;;5034736;28;20057;-49
2022/03/12 03:56:04;;;;;;;2.45;1.90;;;;;;;;;;5034625;28;20195;-48
2022/03/12 03:58:32;;;;;;;2.17;1.70;;;;;;;;;;5034838;28;20022;-49
2022/03/12 04:00:59;;;;;;;2.33;1.73;;;;;;;;;;5034529;28;20511;-49
2022/03/12 04:03:26;;;;;;;2.40;2.20;;;;;;;;;;5034844;28;20079;-49
2022/03/12 04:05:52;;;;;;;2.25;2.00;;;;;;;;;;5034439;28;20033;-49
2022/03/12 04:08:21;;;;;;;2.38;1.98;;;;;;;;;;5034433;28;20025;-47
2022/03/12 04:10:47;;;;;;;2.00;1.70;;;;;;;;;;5034587;28;20106;-49
2022/03/12 04:13:13;;;;;;;1.80;1.55;;;;;;;;;;5034435;28;20021;-49
2022/03/12 04:15:40;;;;;;;1.95;1.65;;;;;;;;;;5034314;28;20030;-49
2022/03/12 04:18:07;;;;;;;2.60;2.22;;;;;;;;;;5034307;28;20468;-49
2022/03/12 04:20:34;;;;;;;2.28;1.80;;;;;;;;;;5032911;28;20048;-50
2022/03/12 04:23:00;;;;;;;2.90;1.75;;;;;;;;;;5034097;28;20032;-50
2022/03/12 04:25:29;;;;;;;2.60;1.75;;;;;;;;;;5034118;28;20031;-49
2022/03/12 04:27:56;;;;;;;2.45;2.00;;;;;;;;;;5033930;28;20037;-49
2022/03/12 04:30:22;;;;;;;1.52;1.42;;;;;;;;;;5034033;28;20116;-48
2022/03/12 04:32:49;;;;;;;1.77;1.67;;;;;;;;;;5033933;28;20117;-50
2022/03/12 04:35:16;;;;;;;2.10;1.88;;;;;;;;;;5033897;28;20530;-48
2022/03/12 04:37:42;;;;;;;1.83;1.50;;;;;;;;;;5034096;28;20388;-49
2022/03/12 04:40:11;;;;;;;2.80;1.77;;;;;;;;;;5033775;28;20032;-49
2022/03/12 04:42:42;;;;;;;1.85;1.65;;;;;;;;;;5033219;28;20112;-48
2022/03/12 04:45:09;;;;;;;1.95;1.60;;;;;;;;;;5033561;28;20476;-48
2022/03/12 04:47:35;;;;;;;1.88;1.58;;;;;;;;;;5033648;28;20472;-49
2022/03/12 04:50:02;;;;;;;1.95;1.48;;;;;;;;;;5033583;28;20549;-50
2022/03/12 04:52:30;;;;;;;1.67;1.52;;;;;;;;;;5033602;28;20026;-48
2022/03/12 04:54:56;;;;;;;1.48;1.38;;;;;;;;;;5033479;28;20025;-48
2022/03/12 04:57:22;;;;;;;2.28;1.63;;;;;;;;;;5033773;28;20412;-48
2022/03/12 04:59:48;;;;;;;1.52;1.38;;;;;;;;;;5033453;28;20026;-49
2022/03/12 05:02:14;;;;;;;3.45;1.60;;;;;;;;;;5033305;28;20029;-48
2022/03/12 05:04:40;;;;;;;1.48;1.25;;;;;;;;;;5033309;28;20037;-49
2022/03/12 05:07:07;;;;;;;1.60;1.42;;;;;;;;;;5033322;28;20435;-49
2022/03/12 05:09:33;;;;;;;1.50;1.30;;;;;;;;;;5033522;28;20021;-48
2022/03/12 05:12:05;;;;;;;1.42;1.33;;;;;;;;;;5033181;28;20041;-49
2022/03/12 05:14:34;;;;;;;1.60;1.50;;;;;;;;;;5033491;28;20029;-49
2022/03/12 05:17:01;;;;;;;1.23;1.13;;;;;;;;;;5033293;28;20033;-48
2022/03/12 05:19:28;;;;;;;1.75;1.65;;;;;;;;;;5033338;28;20029;-48
2022/03/12 05:21:54;;;;;;;1.30;1.20;;;;;;;;;;5033076;28;20021;-49
2022/03/12 05:24:20;;;;;;;2.17;1.48;;;;;;;;;;5033053;28;20033;-48
2022/03/12 05:26:47;;;;;;;1.60;1.27;;;;;;;;;;5033090;28;20022;-48
2022/03/12 05:29:12;;;;;;;1.40;1.17;;;;;;;;;;5032923;28;20029;-49
2022/03/12 05:31:38;;;;;;;1.42;1.33;;;;;;;;;;5032830;28;20175;-48
2022/03/12 05:34:05;;;;;;;2.20;1.30;;;;;;;;;;5032792;28;20037;-48
2022/03/12 05:36:31;;;;;;;1.73;1.48;;;;;;;;;;5032803;28;20155;-49
2022/03/12 05:38:57;;;;;;;1.60;1.23;;;;;;;;;;5032761;28;20143;-48
2022/03/12 05:41:23;;;;;;;1.88;1.55;;;;;;;;;;5032689;28;20044;-51
2022/03/12 05:43:49;;;;;;;1.40;1.13;;;;;;;;;;5032431;28;20025;-50
2022/03/12 05:46:17;;;;;;;1.40;1.10;;;;;;;;;;5032908;28;20039;-48
2022/03/12 05:48:47;;;;;;;1.95;1.50;;;;;;;;;;5032606;28;20022;-49
2022/03/12 05:51:13;;;;;;;1.30;1.00;;;;;;;;;;5032392;28;20041;-49
2022/03/12 05:53:39;;;;;;;1.70;1.45;;;;;;;;;;5031735;28;20025;-48
2022/03/12 05:56:05;;;;;;;1.55;1.30;;;;;;;;;;5032453;28;20029;-49
2022/03/12 05:58:35;;;;;;;1.80;1.50;;;;;;;;;;5032428;28;20021;-49
2022/03/12 06:01:01;;;;;;;1.40;1.10;;;;;;;;;;5032765;28;20053;-50
2022/03/12 06:03:27;;;;;;;1.55;1.33;;;;;;;;;;5032424;28;20025;-48
2022/03/12 06:05:58;;;;;;;1.98;1.17;;;;;;;;;;5032383;28;20033;-48
2022/03/12 06:08:25;;;;;;;1.70;1.15;;;;;;;;;;5032622;28;20100;-49
2022/03/12 06:10:52;;;;;;;1.45;1.13;;;;;;;;;;5032505;28;20418;-48
2022/03/12 06:13:18;;;;;;;1.40;1.00;;;;;;;;;;5032281;28;20026;-48
2022/03/12 06:15:48;;;;;;;1.55;1.27;;;;;;;;;;5032295;28;20080;-50
2022/03/12 06:18:15;;;;;;;1.77;1.20;;;;;;;;;;5032242;28;20155;-50
2022/03/12 06:20:42;;;;;;;1.88;1.30;;;;;;;;;;5032561;28;20029;-49
2022/03/12 06:23:08;;;;;;;1.45;1.33;;;;;;;;;;5032487;28;20059;-49
2022/03/12 06:25:34;;;;;;;1.85;1.20;;;;;;;;;;5032176;28;20467;-50
2022/03/12 06:28:02;;;;;;;1.35;1.25;;;;;;;;;;5032400;28;20036;-49
2022/03/12 06:30:29;;;;;;;3.22;1.38;;;;;;;;;;5032284;28;20038;-48
2022/03/12 06:32:55;;;;;;;1.40;1.30;;;;;;;;;;5032140;28;20033;-50
2022/03/12 06:35:22;;;;;;;1.02;0.90;;;;;;;;;;5032277;28;20021;-50
2022/03/12 06:37:48;;;;;;;1.20;1.10;;;;;;;;;;5032114;28;20373;-49
2022/03/12 06:40:14;;;;;;;1.33;1.23;;;;;;;;;;5032123;28;20112;-49
2022/03/12 06:42:41;;;;;;;1.25;1.15;;;;;;;;;;5032029;28;20026;-48
2022/03/12 06:45:08;;;;;;;1.08;1.00;;;;;;;;;;5031672;28;20407;-50
2022/03/12 06:47:37;;;;;;;1.92;1.20;;;;;;;;;;5032163;28;20057;-49
2022/03/12 06:50:04;;;;;;;1.13;1.02;;;;;;;;;;5031940;28;20049;-49
2022/03/12 06:52:30;;;;;;;1.00;0.90;;;;;;;;;;5031895;28;20037;-50
2022/03/12 06:54:56;;;;;;;1.25;1.15;;;;;;;;;;5032191;28;20289;-48
2022/03/12 06:57:22;;;;;;;1.20;1.10;;;;;;;;;;5032162;28;20026;-49
2022/03/12 06:59:49;;;;;;;1.20;1.02;;;;;;;;;;5031899;28;20447;-50
2022/03/12 07:02:15;;;;;;;1.00;0.90;;;;;;;;;;5031866;28;20148;-49
2022/03/12 07:04:41;;;;;;;1.75;1.10;;;;;;;;;;5031784;28;20029;-49
2022/03/12 07:07:07;;;;;;;1.77;1.17;;;;;;;;;;5035513;28;20040;-48
2022/03/12 07:09:36;;;;;;;1.20;1.05;;;;;;;;;;5035491;28;20415;-49
2022/03/12 07:12:03;;;;;;;1.15;1.05;;;;;;;;;;5035513;28;20549;-50
2022/03/12 07:14:30;;;;;;;1.67;1.30;;;;;;;;;;5035359;28;20026;-48
2022/03/12 07:16:56;;;;;;;1.77;1.17;;;;;;;;;;5035453;28;20061;-50
2022/03/12 07:19:22;;;;;;;1.38;0.90;;;;;;;;;;5035353;28;20030;-48
2022/03/12 07:21:49;;;;;;;1.40;1.23;;;;;;;;;;5035229;28;20036;-49
2022/03/12 07:24:15;;;;;;;1.65;0.80;;;;;;;;;;5035272;28;20024;-50
2022/03/12 07:26:41;;;;;;;2.45;0.90;;;;;;;;;;5035184;28;20127;-49
2022/03/12 07:29:07;;;;;;;2.50;1.20;;;;;;;;;;5035213;28;20491;-49
2022/03/12 07:31:36;;;;;;;2.17;1.13;;;;;;;;;;5035042;28;20037;-48
2022/03/12 07:34:02;;;;;;;1.27;1.20;;;;;;;;;;5035165;28;20061;-49
2022/03/12 07:36:28;;;;;;;1.67;1.20;;;;;;;;;;5035184;28;20045;-49
2022/03/12 07:38:54;;;;;;;1.35;1.00;;;;;;;;;;5035023;28;20454;-50
2022/03/12 07:41:20;;;;;;;1.90;1.10;;;;;;;;;;5034982;28;20108;-47
2022/03/12 07:43:46;;;;;;;2.00;1.05;;;;;;;;;;5034567;28;20108;-49
2022/03/12 07:46:12;;;;;;;2.80;0.80;;;;;;;;;;5034892;28;20030;-49
2022/03/12 07:48:38;;;;;;;1.42;1.10;;;;;;;;;;5034730;28;20496;-48
2022/03/12 07:51:05;;;;;;;1.17;0.98;;;;;;;;;;5034648;28;20076;-49
2022/03/12 07:53:31;;;;;;;2.38;1.13;;;;;;;;;;5034802;28;20025;-48
2022/03/12 07:55:58;;;;;;;7.20;1.23;;;;;;;;;;5034605;28;20172;-48
2022/03/12 07:58:26;;;;;;;8.27;1.20;;;;;;;;;;5034611;28;20143;-48
2022/03/12 08:00:58;;;;;;;8.98;1.50;;;;;;;;;;5034528;28;20026;-47
2022/03/12 08:03:24;;;;;;;10.32;1.58;;;;;;;;;;5034531;28;20022;-48
2022/03/12 08:05:50;;;;;;;8.35;1.17;;;;;;;;;;5034436;28;20030;-47
2022/03/12 08:08:17;;;;;;;5.75;1.42;;;;;;;;;;5034463;28;20092;-48
2022/03/12 08:13:29;;;;;;;3.92;0.80;;;;;;;;;;5034395;28;20029;-48
2022/03/12 08:15:55;;;;;;;3.42;0.98;;;;;;;;;;5034213;28;20040;-48
2022/03/12 08:18:22;;;;;;;7.30;1.10;;;;;;;;;;5033400;28;20040;-49
2022/03/12 08:20:48;;;;;;;1.88;1.10;;;;;;;;;;5034183;28;20030;-49
2022/03/12 08:23:15;;;;;;;5.75;1.10;;;;;;;;;;5034155;28;20091;-49
2022/03/12 08:25:41;;;;;;;5.97;0.95;;;;;;;;;;5034079;28;20061;-47
2022/03/12 08:28:07;;;;;;;1.65;1.17;;;;;;;;;;5034314;28;20460;-48
2022/03/12 08:30:34;;;;;;;6.05;1.20;;;;;;;;;;5034009;28;20041;-53
2022/03/12 08:33:00;;;;;;;5.00;0.80;;;;;;;;;;5033875;28;20026;-56
2022/03/12 08:35:26;;;;;;;1.55;1.02;;;;;;;;;;5033879;28;20072;-52
2022/03/12 08:37:53;;;;;;;1.80;1.10;;;;;;;;;;5033798;28;20064;-57
2022/03/12 08:40:19;;;;;;;2.22;1.20;;;;;;;;;;5034097;28;20033;-56
2022/03/12 08:42:45;;;;;;;2.05;1.42;;;;;;;;;;5033719;28;20468;-56
2022/03/12 08:45:11;;;;;;;3.67;1.17;;;;;;;;;;5033381;28;20050;-57
2022/03/12 08:48:01;;;;;;;2.90;1.10;;;;;;;;;;5033776;28;20041;-56
2022/03/12 08:50:27;;;;;;;3.53;1.33;;;;;;;;;;5033595;28;20077;-52
2022/03/12 08:52:53;;;;;;;2.40;1.38;;;;;;;;;;5033488;28;20299;-54
2022/03/12 08:55:19;;;;;;;1.88;1.00;;;;;;;;;;5033459;28;20037;-56
2022/03/12 08:57:45;;;;;;;2.58;1.10;;;;;;;;;;5033527;28;20025;-55
2022/03/12 09:00:12;;;;;;;2.42;0.85;;;;;;;;;;5033663;28;20026;-55
2022/03/12 09:02:39;;;;;;;2.83;0.90;;;;;;;;;;5033395;28;20041;-55
2022/03/12 09:05:06;;;;;;;2.22;1.67;;;;;;;;;;5033577;28;20025;-55
2022/03/12 09:07:33;;;;;;;2.60;1.20;;;;;;;;;;5033447;28;20040;-54
2022/03/12 09:09:59;;;;;;;1.35;1.10;;;;;;;;;;5033151;28;20151;-55
2022/03/12 09:12:25;;;;;;;3.45;1.00;;;;;;;;;;5033240;28;20056;-55
2022/03/12 09:14:52;;;;;;;3.00;1.02;;;;;;;;;;5033244;28;20026;-54
2022/03/12 09:17:18;;;;;;;1.75;0.77;;;;;;;;;;5033099;28;20037;-56
2022/03/12 09:19:44;;;;;;;1.73;0.75;;;;;;;;;;5033081;28;20471;-54
2022/03/12 09:22:10;;;;;;;5.45;1.10;;;;;;;;;;5033040;28;20025;-55
2022/03/12 09:24:38;;;;;;;5.53;1.10;;;;;;;;;;5033036;28;20026;-54
2022/03/12 09:27:04;;;;;;;2.22;0.75;;;;;;;;;;5033189;28;20395;-56
2022/03/12 09:29:32;;;;;;;1.63;1.23;;;;;;;;;;5032820;28;20028;-54
2022/03/12 09:31:59;;;;;;;4.68;1.02;;;;;;;;;;5033265;28;20052;-55
2022/03/12 09:34:25;;;;;;;1.75;1.00;;;;;;;;;;5033061;28;20021;-54
2022/03/12 09:36:51;;;;;;;3.40;1.30;;;;;;;;;;5032930;28;20034;-54
2022/03/12 09:39:17;;;;;;;1.67;1.20;;;;;;;;;;5033038;28;20030;-56
2022/03/12 09:41:43;;;;;;;3.03;1.20;;;;;;;;;;5032854;28;20033;-54
2022/03/12 09:44:09;;;;;;;3.33;1.08;;;;;;;;;;5032613;28;20045;-56
2022/03/12 09:46:35;;;;;;;2.00;1.13;;;;;;;;;;5032693;28;20231;-55
2022/03/12 09:49:02;;;;;;;1.63;1.20;;;;;;;;;;5032332;28;20045;-55
2022/03/12 09:51:29;;;;;;;2.83;1.48;;;;;;;;;;5032288;28;20046;-54
2022/03/12 09:54:04;;;;;;;2.03;1.10;;;;;;;;;;5032878;28;20107;-55
2022/03/12 09:56:30;;;;;;;2.10;1.48;;;;;;;;;;5032560;28;20033;-54
2022/03/12 09:58:56;;;;;;;2.90;1.02;;;;;;;;;;5032509;28;20029;-56
2022/03/12 10:01:22;;;;;;;4.22;1.17;;;;;;;;;;5032520;28;20021;-55
2022/03/12 10:03:48;;;;;;;2.42;1.33;;;;;;;;;;5032448;28;20064;-54
2022/03/12 10:06:15;;;;;;;1.00;0.75;;;;;;;;;;5032411;28;20029;-55
2022/03/12 10:08:41;;;;;;;2.03;1.10;;;;;;;;;;5032382;28;20048;-55
2022/03/12 10:11:07;;;;;;;1.38;1.02;;;;;;;;;;5032554;28;20061;-55
2022/03/12 10:13:33;;;;;;;2.15;1.33;;;;;;;;;;5032610;28;20072;-51
2022/03/12 10:15:59;;;;;;;1.95;0.80;;;;;;;;;;5032231;28;20038;-53
2022/03/12 10:18:26;;;;;;;2.35;1.05;;;;;;;;;;5032573;28;20021;-54
2022/03/12 10:20:52;;;;;;;4.80;1.23;;;;;;;;;;5032302;28;20115;-54
2022/03/12 10:23:18;;;;;;;2.20;1.30;;;;;;;;;;5032215;28;20030;-55
2022/03/12 10:25:45;;;;;;;1.15;0.90;;;;;;;;;;5032232;28;20025;-56
2022/03/12 10:28:12;;;;;;;2.38;1.08;;;;;;;;;;5032193;28;20030;-54
2022/03/12 10:30:38;;;;;;;2.30;1.10;;;;;;;;;;5032386;28;20052;-54
2022/03/12 10:33:04;;;;;;;2.40;1.05;;;;;;;;;;5032155;28;20037;-55
2022/03/12 10:35:50;;;;;;;2.35;1.10;;;;;;;;;;5032094;28;20033;-55
2022/03/12 10:38:17;;;;;;;2.58;1.60;;;;;;;;;;5032230;28;20022;-55
2022/03/12 10:40:44;;;;;;;2.70;1.20;;;;;;;;;;5033873;28;20117;-53
2022/03/12 10:43:14;;;;;;;2.45;1.55;;;;;;;;;;5036034;28;20033;-54
2022/03/12 10:45:58;;;;;;;2.25;1.55;;;;;;;;;;5035835;28;20085;-54
2022/03/12 10:48:25;;;;;;;3.65;1.90;;;;;;;;;;5035955;28;20048;-55
2022/03/12 10:50:51;;;;;;;4.55;3.75;;;;;;;;;;5035786;28;20037;-54
2022/03/12 10:53:18;;;;;;;5.22;2.70;;;;;;;;;;5035979;28;20039;-57
2022/03/12 10:55:46;;;;;;;4.22;2.50;;;;;;;;;;5035665;28;20076;-56
2022/03/12 10:58:12;;;;;;;4.15;2.67;;;;;;;;;;5035720;28;20029;-57
2022/03/12 11:00:52;;;;;;;3.38;2.47;;;;;;;;;;5035713;28;20030;-56
2022/03/12 11:03:20;;;;;;;3.70;2.33;;;;;;;;;;5035830;28;20079;-55
2022/03/12 11:05:47;;;;;;;2.72;2.05;;;;;;;;;;5035673;28;20080;-54
2022/03/12 11:08:23;;;;;;;4.28;2.13;;;;;;;;;;5034231;28;20033;-56
2022/03/12 11:10:52;;;;;;;3.30;2.05;;;;;;;;;;5035457;28;20037;-56
2022/03/12 11:13:25;;;;;;;3.88;1.95;;;;;;;;;;5035739;28;20028;-55
2022/03/12 11:16:04;;;;;;;3.83;2.20;;;;;;;;;;5035826;28;20394;-55
2022/03/12 11:18:30;;;;;;;3.63;1.35;;;;;;;;;;5035457;28;20203;-56
2022/03/12 11:20:57;;;;;;;4.43;2.00;;;;;;;;;;5035421;28;20049;-56
2022/03/12 11:23:27;;;;;;;3.45;1.60;;;;;;;;;;5035849;28;20029;-56
2022/03/12 11:25:58;;;;;;;4.13;1.58;;;;;;;;;;5035163;28;20028;-55
2022/03/12 11:28:24;;;;;;;1.70;1.50;;;;;;;;;;5035207;28;20108;-56
2022/03/12 11:30:50;;;;;;;3.13;1.88;;;;;;;;;;5035083;28;20036;-54
2022/03/12 11:33:18;;;;;;;2.67;1.85;;;;;;;;;;5035206;28;20090;-55
2022/03/12 11:35:45;;;;;;;2.15;1.50;;;;;;;;;;5035024;28;20036;-56
2022/03/12 11:38:24;;;;;;;3.50;1.90;;;;;;;;;;5035020;28;20040;-56
2022/03/12 11:41:20;;;;;;;2.10;1.13;;;;;;;;;;5035019;28;20068;-55
2022/03/12 11:43:47;;;;;;;4.03;1.80;;;;;;;;;;5034702;28;20022;-56
2022/03/12 11:46:13;;;;;;;4.38;1.50;;;;;;;;;;5034889;28;20034;-56
2022/03/12 11:48:41;;;;;;;3.88;1.77;;;;;;;;;;5034759;28;20029;-56
2022/03/12 11:51:25;;;;;;;1.85;1.30;;;;;;;;;;5034516;28;20072;-55
2022/03/12 11:53:53;;;;;;;2.75;1.40;;;;;;;;;;5034486;28;20113;-55
2022/03/12 11:56:25;;;;;;;2.00;1.40;;;;;;;;;;5034723;28;20033;-54
2022/03/12 11:58:51;;;;;;;2.60;1.42;;;;;;;;;;5034633;28;20547;-56
2022/03/12 12:01:20;;;;;;;2.75;1.58;;;;;;;;;;5034644;28;20056;-56
2022/03/12 12:03:47;;;;;;;2.13;1.40;;;;;;;;;;5034810;28;20372;-55
2022/03/12 12:06:13;;;;;;;1.77;1.55;;;;;;;;;;5034813;28;20029;-54
2022/03/12 12:08:40;;;;;;;1.95;1.25;;;;;;;;;;5034615;28;20025;-53
2022/03/12 12:11:07;;;;;;;1.83;1.20;;;;;;;;;;5034423;28;20021;-54
2022/03/12 12:13:33;;;;;;;1.77;1.15;;;;;;;;;;5034381;28;20518;-52
2022/03/12 12:16:00;;;;;;;1.75;1.40;;;;;;;;;;5034308;28;20049;-55
2022/03/12 12:18:26;;;;;;;2.97;1.33;;;;;;;;;;5034327;28;20056;-55
2022/03/12 12:20:52;;;;;;;1.58;1.48;;;;;;;;;;5034204;28;20033;-55
2022/03/12 12:23:19;;;;;;;1.55;1.30;;;;;;;;;;5034205;28;20476;-55
2022/03/12 12:25:45;;;;;;;1.95;1.52;;;;;;;;;;5034071;28;20029;-54
2022/03/12 12:28:21;;;;;;;3.20;1.50;;;;;;;;;;5034233;28;20030;-55
2022/03/12 12:30:48;;;;;;;2.15;1.45;;;;;;;;;;5034037;28;20029;-48
2022/03/12 12:33:15;;;;;;;2.38;1.60;;;;;;;;;;5033897;28;20120;-48
2022/03/12 12:35:42;;;;;;;1.92;1.33;;;;;;;;;;5034010;28;20036;-48
2022/03/12 12:38:09;;;;;;;1.65;1.42;;;;;;;;;;5033925;28;20507;-49
2022/03/12 12:40:42;;;;;;;1.80;1.30;;;;;;;;;;5033864;28;20039;-49
2022/03/12 12:43:09;;;;;;;1.52;1.23;;;;;;;;;;5033898;28;20033;-49
2022/03/12 12:45:43;;;;;;;1.15;1.00;;;;;;;;;;5033557;28;20475;-50
2022/03/12 12:48:12;;;;;;;1.83;1.65;;;;;;;;;;5033871;28;20034;-50
2022/03/12 12:50:38;;;;;;;2.70;1.40;;;;;;;;;;5033999;28;20026;-50
2022/03/12 12:53:14;;;;;;;2.13;1.20;;;;;;;;;;5033547;28;20038;-50
2022/03/12 12:55:40;;;;;;;2.20;1.35;;;;;;;;;;5033942;28;20123;-50
2022/03/12 12:58:07;;;;;;;1.33;1.23;;;;;;;;;;5033511;28;20034;-49
2022/03/12 13:00:34;;;;;;;1.77;1.27;;;;;;;;;;5033456;28;20124;-49
2022/03/12 13:03:00;;;;;;;1.67;1.25;;;;;;;;;;5032955;28;20033;-50
2022/03/12 13:05:47;;;;;;;2.17;1.40;;;;;;;;;;5033755;28;20380;-50
2022/03/12 13:08:14;;;;;;;1.85;1.30;;;;;;;;;;5033318;28;20048;-48
2022/03/12 13:10:41;;;;;;;4.85;1.10;;;;;;;;;;5033282;28;20045;-50
2022/03/12 13:13:15;;;;;;;4.70;1.23;;;;;;;;;;5033079;28;20037;-50
2022/03/12 13:15:43;;;;;;;1.20;1.10;;;;;;;;;;5033219;28;20022;-50
2022/03/12 13:18:29;;;;;;;1.27;1.08;;;;;;;;;;5033670;28;20436;-50
2022/03/12 13:20:56;;;;;;;2.75;1.10;;;;;;;;;;5025940;28;20043;-49
2022/03/12 13:23:47;;;;;;;1.95;1.25;;;;;;;;;;5032977;28;20075;-50
2022/03/12 13:26:18;;;;;;;2.10;1.42;;;;;;;;;;5033055;28;20026;-49
2022/03/12 13:28:44;;;;;;;1.88;1.25;;;;;;;;;;5033217;28;20060;-50
2022/03/12 13:31:18;;;;;;;1.10;1.00;;;;;;;;;;5032841;28;20025;-49
2022/03/12 13:33:45;;;;;;;1.63;1.10;;;;;;;;;;5033079;28;20033;-49
2022/03/12 13:36:20;;;;;;;2.97;1.02;;;;;;;;;;5033016;28;20022;-49
2022/03/12 13:38:46;;;;;;;1.13;1.00;;;;;;;;;;5032790;28;20637;-51
2022/03/12 13:41:14;;;;;;;1.02;0.93;;;;;;;;;;5032861;28;20048;-54
2022/03/12 13:43:41;;;;;;;1.33;1.17;;;;;;;;;;5032456;28;20064;-54
2022/03/12 13:46:07;;;;;;;1.10;0.85;;;;;;;;;;5032627;28;20133;-55
2022/03/12 13:48:33;;;;;;;4.95;1.10;;;;;;;;;;5032783;28;20368;-57
2022/03/12 13:50:59;;;;;;;1.02;0.82;;;;;;;;;;5032569;28;20037;-57
2022/03/12 13:53:31;;;;;;;1.58;0.98;;;;;;;;;;5032451;28;20068;-55
2022/03/12 13:56:05;;;;;;;1.15;0.70;;;;;;;;;;5032526;28;20060;-56
2022/03/12 13:58:31;;;;;;;1.92;1.35;;;;;;;;;;5032451;28;20045;-56
2022/03/12 14:00:59;;;;;;;1.00;0.70;;;;;;;;;;5032524;28;20026;-56
2022/03/12 14:03:28;;;;;;;1.23;1.00;;;;;;;;;;5032704;28;20041;-55
2022/03/12 14:05:54;;;;;;;1.10;0.80;;;;;;;;;;5032376;28;20029;-56
2022/03/12 14:08:20;;;;;;;1.67;0.82;;;;;;;;;;5032386;28;20472;-56
2022/03/12 14:10:47;;;;;;;2.67;1.00;;;;;;;;;;5032328;28;20041;-56
2022/03/12 14:13:16;;;;;;;2.97;1.08;;;;;;;;;;5032013;28;20073;-54
2022/03/12 14:15:42;;;;;;;1.30;1.05;;;;;;;;;;5031354;28;20017;-57
2022/03/12 14:18:08;;;;;;;1.08;1.00;;;;;;;;;;5032152;28;20108;-55
2022/03/12 14:20:43;;;;;;;1.20;0.90;;;;;;;;;;5032284;28;20061;-56
2022/03/12 14:23:09;;;;;;;1.75;1.10;;;;;;;;;;5032507;28;20029;-55
2022/03/12 14:25:35;;;;;;;2.90;1.00;;;;;;;;;;5032163;28;20029;-55
2022/03/12 14:28:07;;;;;;;1.08;0.80;;;;;;;;;;5032161;28;20400;-54
2022/03/12 14:30:33;;;;;;;1.35;0.98;;;;;;;;;;5032081;28;20022;-54
2022/03/12 14:33:00;;;;;;;1.55;0.98;;;;;;;;;;5032087;28;20045;-54
2022/03/12 14:35:27;;;;;;;2.05;1.17;;;;;;;;;;5032056;28;20099;-54
2022/03/12 14:37:54;;;;;;;1.50;1.05;;;;;;;;;;5032225;28;20021;-54
2022/03/12 14:40:22;;;;;;;1.58;0.65;;;;;;;;;;5032058;28;20088;-49
2022/03/12 14:42:48;;;;;;;0.80;0.80;;;;;;;;;;5032371;28;20087;-48
2022/03/12 14:45:17;;;;;;;1.77;1.02;;;;;;;;;;5031803;28;20072;-47
2022/03/12 14:47:43;;;;;;;1.25;0.95;;;;;;;;;;5031962;28;20040;-48